Terminal Aerodrome Forecast
Issued by NWS La Crosse, WI

Home | Current Version | Previous Version | Text Only | Print | Product List | Glossary On
Versions: 1 2 3 4 5 6 7 8 9 10 11 12 13 14 15 16 17 18 19 20 21 22 23 24 25 26 27 28 29 30 31 32 33 34 35 36 37 38 39 40 41 42
707
FTUS43 KARX 242115 AAA
TAFLSE
TAF AMD
KLSE 242115Z 2421/2518 07004KT P6SM OVC018
     FM250300 07006KT 2SM -SN OVC008
     FM250400 07007KT 1 1/2SM -SN OVC003
     FM251200 04009KT 1SM -SN OVC003
     FM251700 02010KT 1SM -SN OVC008=

USA.gov is the U.S. government's official web portal to all federal, state and local government web resources and services.